createdAt,value
2019-02-06T00:01:05.958Z,8.73
2019-02-06T00:03:12.181Z,10.98
2019-02-06T00:05:17.845Z,10.70
2019-02-06T00:07:23.597Z,9.88
2019-02-06T00:09:29.899Z,11.70
2019-02-06T00:11:37.142Z,12.50
2019-02-06T00:13:42.872Z,14.25
2019-02-06T00:15:48.351Z,12.20
2019-02-06T00:17:54.501Z,13.03
2019-02-06T00:20:00.333Z,10.58
2019-02-06T00:22:08.678Z,11.08
2019-02-06T00:24:14.310Z,11.03
2019-02-06T00:26:21.809Z,9.65
2019-02-06T00:28:27.254Z,10.38
2019-02-06T00:30:33.001Z,9.45
2019-02-06T00:32:38.405Z,9.85
2019-02-06T00:34:43.902Z,10.65
2019-02-06T00:36:49.414Z,12.68
2019-02-06T00:38:54.970Z,10.30
2019-02-06T00:41:00.401Z,10.48
2019-02-06T00:43:06.383Z,9.73
2019-02-06T00:45:13.523Z,11.15
2019-02-06T00:47:20.886Z,11.73
2019-02-06T00:49:27.774Z,12.47
2019-02-06T00:51:33.288Z,10.98
2019-02-06T00:53:38.710Z,11.73
2019-02-06T00:55:44.665Z,12.30
2019-02-06T00:57:50.095Z,12.20
2019-02-06T00:59:58.459Z,11.93
2019-02-06T01:02:03.023Z,12.35
2019-02-06T01:04:08.691Z,12.95
2019-02-06T01:06:14.548Z,13.50
2019-02-06T01:08:20.442Z,15.45
2019-02-06T01:10:26.501Z,13.30
2019-02-06T01:12:32.001Z,11.95
2019-02-06T01:14:37.866Z,9.35
2019-02-06T01:16:43.436Z,10.25
2019-02-06T01:18:48.891Z,9.58
2019-02-06T01:20:54.365Z,8.43
2019-02-06T01:22:59.774Z,9.75
2019-02-06T01:25:07.183Z,8.90
2019-02-06T01:27:12.737Z,9.25
2019-02-06T01:29:23.445Z,8.70
2019-02-06T01:31:30.690Z,9.63
2019-02-06T01:33:36.761Z,10.28
2019-02-06T01:35:49.654Z,14.20
2019-02-06T01:37:49.359Z,13.25
2019-02-06T01:39:55.202Z,9.25
2019-02-06T01:42:00.834Z,11.95
2019-02-06T01:44:08.098Z,15.05
2019-02-06T01:46:13.525Z,12.47
2019-02-06T01:48:18.933Z,11.43
2019-02-06T01:50:24.426Z,9.73
2019-02-06T01:52:30.117Z,10.30
2019-02-06T01:54:36.441Z,9.25
2019-02-06T01:56:42.026Z,9.60
2019-02-06T01:58:47.425Z,9.63
2019-02-06T02:00:53.755Z,8.93
2019-02-06T02:03:01.198Z,9.63
2019-02-06T02:05:07.078Z,7.90
2019-02-06T02:07:13.137Z,7.03
2019-02-06T02:09:21.541Z,9.23
2019-02-06T02:11:27.134Z,8.03
2019-02-06T02:13:36.654Z,10.53
2019-02-06T02:15:42.070Z,9.18
2019-02-06T02:17:47.506Z,7.00
2019-02-06T02:19:54.449Z,8.43
2019-02-06T02:21:59.990Z,9.80
2019-02-06T02:24:05.436Z,10.03
2019-02-06T02:26:11.260Z,12.33
2019-02-06T02:28:16.912Z,12.28
2019-02-06T02:30:29.042Z,12.13
2019-02-06T02:32:35.113Z,11.70
2019-02-06T02:34:41.587Z,13.30
2019-02-06T02:36:47.281Z,14.75
2019-02-06T02:38:54.803Z,13.80
2019-02-06T02:41:01.829Z,12.65
2019-02-06T02:43:10.061Z,10.28
2019-02-06T02:45:21.909Z,10.70
2019-02-06T02:47:27.385Z,10.25
2019-02-06T02:49:32.889Z,12.18
2019-02-06T02:51:38.405Z,10.90
2019-02-06T02:53:44.245Z,9.08
2019-02-06T02:55:49.689Z,10.48
2019-02-06T02:57:55.217Z,9.68
2019-02-06T03:00:01.337Z,8.95
2019-02-06T03:02:24.286Z,8.23
2019-02-06T03:04:32.843Z,8.33
2019-02-06T03:06:39.214Z,8.40
2019-02-06T03:08:44.715Z,8.35
2019-02-06T03:10:50.252Z,8.15
2019-02-06T03:12:55.766Z,8.30
2019-02-06T03:15:01.737Z,8.28
2019-02-06T03:17:09.386Z,9.13
2019-02-06T03:19:14.878Z,11.15
2019-02-06T03:21:20.293Z,9.75
2019-02-06T03:23:25.758Z,10.88
2019-02-06T03:25:31.861Z,7.87
2019-02-06T03:27:37.939Z,7.78
2019-02-06T03:29:46.198Z,6.70
2019-02-06T03:31:52.108Z,7.05
2019-02-06T03:33:57.766Z,7.67
2019-02-06T03:36:16.426Z,8.13
2019-02-06T03:38:21.910Z,7.00
2019-02-06T03:40:27.367Z,6.15
2019-02-06T03:42:33.446Z,5.65
2019-02-06T03:44:39.137Z,5.85
2019-02-06T03:46:44.809Z,5.20
2019-02-06T03:48:52.158Z,6.83
2019-02-06T03:50:57.940Z,6.78
2019-02-06T03:53:03.441Z,9.18
2019-02-06T03:55:11.260Z,12.28
2019-02-06T03:57:17.466Z,9.75
2019-02-06T03:59:22.940Z,7.92
2019-02-06T04:01:29.393Z,7.65
2019-02-06T04:03:34.830Z,6.28
2019-02-06T04:05:40.760Z,6.90
2019-02-06T04:07:46.943Z,7.47
2019-02-06T04:09:53.227Z,6.85
2019-02-06T04:11:58.926Z,7.40
2019-02-06T04:14:08.894Z,6.83
2019-02-06T04:16:14.880Z,5.12
2019-02-06T04:18:20.468Z,5.17
2019-02-06T04:20:26.051Z,6.90
2019-02-06T04:22:33.245Z,5.95
2019-02-06T04:24:38.778Z,6.50
2019-02-06T04:26:44.277Z,7.47
2019-02-06T04:28:49.703Z,7.87
2019-02-06T04:30:55.803Z,7.55
2019-02-06T04:33:01.327Z,6.47
2019-02-06T04:35:08.726Z,5.87
2019-02-06T04:37:14.259Z,7.10
2019-02-06T04:39:19.763Z,8.88
2019-02-06T04:41:25.840Z,7.53
2019-02-06T04:43:31.641Z,7.35
2019-02-06T04:45:37.110Z,7.20
2019-02-06T04:47:42.617Z,7.62
2019-02-06T04:49:48.338Z,9.48
2019-02-06T04:51:53.963Z,10.80
2019-02-06T04:54:01.641Z,11.60
2019-02-06T04:56:07.057Z,9.90
2019-02-06T04:58:13.031Z,9.40
2019-02-06T05:00:22.461Z,9.20
2019-02-06T05:02:28.162Z,9.03
2019-02-06T05:04:33.665Z,10.48
2019-02-06T05:06:39.398Z,11.05
2019-02-06T05:08:44.893Z,10.63
2019-02-06T05:10:50.323Z,8.13
2019-02-06T05:12:56.205Z,8.95
2019-02-06T05:15:01.763Z,9.65
2019-02-06T05:17:09.769Z,8.30
2019-02-06T05:19:15.562Z,8.48
2019-02-06T05:21:21.118Z,7.55
2019-02-06T05:23:29.515Z,7.65
2019-02-06T05:25:35.319Z,8.20
2019-02-06T05:27:40.810Z,6.92
2019-02-06T05:29:52.822Z,7.03
2019-02-06T05:31:58.835Z,7.72
2019-02-06T05:34:08.985Z,8.53
2019-02-06T05:36:14.536Z,6.37
2019-02-06T05:38:20.073Z,7.40
2019-02-06T05:40:25.574Z,6.17
2019-02-06T05:42:31.158Z,8.15
2019-02-06T05:44:37.503Z,7.42
2019-02-06T05:46:43.551Z,8.05
2019-02-06T05:48:54.588Z,7.45
2019-02-06T05:51:00.080Z,6.05
2019-02-06T05:53:05.622Z,6.55
2019-02-06T05:55:11.669Z,5.75
2019-02-06T05:57:17.662Z,5.42
2019-02-06T05:59:23.418Z,5.58
2019-02-06T06:01:28.999Z,5.62
2019-02-06T06:03:34.930Z,6.67
2019-02-06T06:05:40.682Z,5.47
2019-02-06T06:07:48.361Z,5.70
2019-02-06T06:09:54.122Z,5.62
2019-02-06T06:11:59.623Z,4.70
2019-02-06T06:14:05.681Z,5.42
2019-02-06T06:16:11.710Z,5.30
2019-02-06T06:18:17.975Z,5.92
2019-02-06T06:20:27.537Z,5.03
2019-02-06T06:22:34.283Z,5.50
2019-02-06T06:24:44.451Z,5.70
2019-02-06T06:26:50.044Z,6.05
2019-02-06T06:28:55.909Z,6.80
2019-02-06T06:31:01.390Z,5.47
2019-02-06T06:33:07.631Z,5.58
2019-02-06T06:35:13.579Z,4.53
2019-02-06T06:37:19.084Z,5.12
2019-02-06T06:39:24.719Z,4.28
2019-02-06T06:41:30.506Z,5.67
2019-02-06T06:43:36.138Z,6.42
2019-02-06T06:45:42.666Z,6.97
2019-02-06T06:47:48.105Z,5.05
2019-02-06T06:49:54.098Z,7.67
2019-02-06T06:52:00.095Z,8.68
2019-02-06T06:54:11.573Z,9.00
2019-02-06T06:56:17.446Z,9.68
2019-02-06T06:58:24.213Z,12.33
2019-02-06T07:00:31.007Z,8.63
2019-02-06T07:02:36.988Z,9.10
2019-02-06T07:04:42.461Z,7.85
2019-02-06T07:06:47.897Z,6.70
2019-02-06T07:08:53.545Z,7.10
2019-02-06T07:11:02.730Z,6.50
2019-02-06T07:13:08.227Z,6.83
2019-02-06T07:15:19.134Z,6.25
2019-02-06T07:17:24.766Z,7.00
2019-02-06T07:19:30.531Z,6.35
2019-02-06T07:21:35.942Z,6.65
2019-02-06T07:23:42.297Z,5.10
2019-02-06T07:25:48.135Z,6.10
2019-02-06T07:27:53.605Z,6.80
2019-02-06T07:30:01.578Z,6.60
2019-02-06T07:32:07.048Z,6.90
2019-02-06T07:34:13.330Z,7.75
2019-02-06T07:36:21.747Z,7.65
2019-02-06T07:38:27.647Z,6.65
2019-02-06T07:40:33.101Z,6.55
2019-02-06T07:42:41.229Z,6.55
2019-02-06T07:44:46.985Z,7.33
2019-02-06T07:46:52.489Z,6.12
2019-02-06T07:48:59.393Z,5.17
2019-02-06T07:51:04.899Z,7.25
2019-02-06T11:25:14.577Z,8.07
2019-02-06T11:43:02.565Z,7.20
2019-02-06T11:50:22.748Z,6.27
2019-02-06T12:05:48.485Z,5.83
2019-02-06T12:17:09.738Z,6.50
2019-02-06T12:32:38.992Z,6.40
2019-02-06T12:43:42.630Z,6.95
2019-02-06T12:58:15.626Z,6.73
2019-02-06T14:24:56.124Z,8.65
2019-02-06T14:36:02.617Z,8.13
2019-02-06T15:26:07.368Z,10.43
2019-02-06T16:04:29.183Z,10.05
2019-02-06T16:07:13.853Z,10.20
2019-02-06T16:09:53.233Z,18.35
2019-02-06T16:12:45.433Z,16.65
2019-02-06T16:15:24.224Z,13.53
2019-02-06T16:18:09.374Z,13.30
2019-02-06T16:21:02.193Z,14.78
2019-02-06T16:23:35.034Z,11.28
2019-02-06T16:26:14.481Z,11.12
2019-02-06T16:28:49.732Z,13.13
2019-02-06T16:31:20.755Z,14.03
2019-02-06T16:34:10.290Z,15.00
2019-02-06T16:36:55.792Z,16.45
2019-02-06T16:39:45.597Z,18.95
2019-02-06T16:42:43.629Z,17.52
2019-02-06T16:44:59.921Z,15.55
2019-02-06T16:47:33.189Z,13.32
2019-02-06T16:50:19.426Z,14.00
2019-02-06T16:53:05.081Z,10.98
2019-02-06T16:55:36.848Z,11.55
2019-02-06T16:58:08.469Z,12.18
2019-02-06T17:00:56.377Z,12.25
2019-02-06T17:03:44.581Z,11.68
2019-02-06T17:06:01.006Z,12.05
2019-02-06T17:08:52.553Z,11.53
2019-02-06T17:11:22.905Z,10.15
2019-02-06T17:14:30.513Z,11.10
2019-02-06T17:17:03.405Z,12.78
2019-02-06T17:19:40.206Z,11.35
2019-02-06T17:22:32.736Z,13.20
2019-02-06T17:25:08.791Z,12.90
2019-02-06T17:27:40.920Z,13.53
2019-02-06T17:30:17.025Z,12.73
2019-02-06T17:33:28.149Z,13.18
2019-02-06T17:36:02.970Z,13.62
2019-02-06T17:39:01.512Z,14.90
2019-02-06T17:41:48.211Z,13.43
2019-02-06T17:44:08.727Z,13.85
2019-02-06T17:46:38.774Z,16.67
2019-02-06T17:49:16.291Z,15.05
2019-02-06T17:51:58.519Z,14.35
2019-02-06T17:54:44.085Z,14.40
2019-02-06T17:56:51.886Z,15.98
2019-02-06T17:58:57.948Z,16.05
2019-02-06T18:01:32.901Z,13.25
2019-02-06T18:03:42.496Z,13.30
2019-02-06T18:05:48.305Z,13.40
2019-02-06T18:07:53.949Z,13.88
2019-02-06T18:10:07.905Z,15.93
2019-02-06T18:12:14.658Z,13.68
2019-02-06T18:14:20.458Z,15.50
2019-02-06T18:16:27.886Z,15.38
2019-02-06T18:18:34.878Z,16.25
2019-02-06T18:20:40.533Z,19.50
2019-02-06T18:22:54.767Z,18.02
2019-02-06T18:25:02.156Z,18.95
2019-02-06T18:27:07.801Z,17.60
2019-02-06T18:29:20.218Z,18.73
2019-02-06T18:31:26.566Z,17.12
2019-02-06T18:33:32.095Z,17.10
2019-02-06T18:35:41.709Z,18.35
2019-02-06T18:37:49.458Z,16.07
2019-02-06T18:39:56.675Z,16.42
2019-02-06T18:42:02.213Z,17.77
2019-02-06T18:44:07.725Z,15.20
2019-02-06T18:46:13.306Z,16.02
2019-02-06T18:48:23.877Z,17.77
2019-02-06T18:50:31.151Z,14.40
2019-02-06T18:52:36.723Z,15.88
2019-02-06T18:54:46.881Z,14.70
2019-02-06T18:56:54.082Z,16.20
2019-02-06T18:58:59.595Z,19.17
2019-02-06T19:01:06.483Z,19.70
2019-02-06T19:03:17.186Z,18.35
2019-02-06T19:05:25.386Z,18.15
2019-02-06T19:07:30.898Z,19.37
2019-02-06T19:09:36.422Z,17.50
2019-02-06T19:11:42.242Z,20.30
2019-02-06T19:13:49.322Z,17.48
2019-02-06T19:15:56.630Z,17.45
2019-02-06T19:18:02.054Z,18.92
2019-02-06T19:20:09.438Z,18.90
2019-02-06T19:22:15.465Z,19.87
2019-02-06T19:24:21.611Z,18.20
2019-02-06T19:26:27.548Z,16.00
2019-02-06T19:28:33.053Z,14.40
2019-02-06T19:30:39.869Z,15.38
2019-02-06T19:32:46.019Z,18.90
2019-02-06T19:34:51.849Z,17.10
2019-02-06T19:36:58.138Z,17.90
2019-02-06T19:39:09.096Z,18.92
2019-02-06T19:41:15.107Z,18.15
2019-02-06T19:43:21.135Z,17.17
2019-02-06T19:45:29.941Z,16.35
2019-02-06T19:47:35.905Z,15.32
2019-02-06T19:49:41.866Z,15.60
2019-02-06T19:51:47.705Z,16.25
2019-02-06T19:53:53.439Z,14.75
2019-02-06T19:55:59.195Z,26.17
2019-02-06T19:58:06.039Z,20.23
2019-02-06T20:00:15.238Z,18.23
2019-02-06T20:02:20.773Z,18.32
2019-02-06T20:04:28.693Z,18.48
2019-02-06T20:06:34.468Z,18.55
2019-02-06T20:08:40.621Z,18.40
2019-02-06T20:10:47.767Z,16.87
2019-02-06T20:12:53.313Z,13.90
2019-02-06T20:14:58.821Z,14.75
2019-02-06T20:17:05.829Z,14.20
2019-02-06T20:19:11.439Z,15.30
2019-02-06T20:21:18.165Z,13.68
2019-02-06T20:23:24.033Z,14.23
2019-02-06T20:25:29.639Z,13.03
2019-02-06T20:27:38.717Z,13.13
2019-02-06T20:29:44.421Z,14.25
2019-02-06T20:31:50.034Z,13.22
2019-02-06T20:33:55.847Z,12.43
2019-02-06T20:36:03.596Z,11.85
2019-02-06T20:38:09.221Z,12.73
2019-02-06T20:40:23.066Z,14.10
2019-02-06T20:42:29.239Z,12.98
2019-02-06T20:44:35.873Z,16.73
2019-02-06T20:46:49.910Z,17.30
2019-02-06T20:48:56.550Z,21.33
2019-02-06T20:51:04.282Z,20.50
2019-02-06T21:03:29.276Z,18.90
2019-02-06T21:05:35.026Z,23.70
2019-02-06T21:07:40.996Z,20.97
2019-02-06T21:09:47.151Z,23.10
2019-02-06T21:11:52.718Z,25.27
2019-02-06T21:13:58.599Z,32.90
2019-02-06T21:16:04.260Z,30.30
2019-02-06T21:18:11.396Z,28.65
2019-02-06T21:20:18.877Z,27.15
2019-02-06T21:22:24.571Z,25.27
2019-02-06T21:24:33.184Z,22.20
2019-02-06T21:26:39.890Z,20.30
2019-02-06T21:28:46.353Z,23.02
2019-02-06T21:30:52.750Z,19.67
2019-02-06T21:32:58.984Z,14.13
2019-02-06T21:35:06.269Z,16.00
2019-02-06T21:37:13.662Z,18.98
2019-02-06T21:39:20.970Z,23.77
2019-02-06T21:41:27.948Z,23.95
2019-02-06T21:43:43.909Z,24.63
2019-02-06T21:45:42.134Z,17.90
2019-02-06T21:47:48.022Z,14.80
2019-02-06T21:49:56.746Z,16.77
2019-02-06T21:52:05.632Z,17.32
2019-02-06T21:54:11.214Z,18.25
2019-02-06T21:56:16.717Z,18.67
2019-02-06T21:58:22.721Z,18.00
2019-02-06T22:00:30.526Z,17.98
2019-02-06T22:02:37.098Z,13.88
2019-02-06T22:04:42.665Z,13.22
2019-02-06T22:06:48.345Z,15.45
2019-02-06T22:08:54.137Z,14.28
2019-02-06T22:11:00.158Z,15.10
2019-02-06T22:13:06.146Z,14.85
2019-02-06T22:15:14.722Z,16.80
2019-02-06T22:17:20.200Z,16.70
2019-02-06T22:19:25.875Z,15.30
2019-02-06T22:21:31.832Z,16.57
2019-02-06T22:23:38.032Z,16.67
2019-02-06T22:25:44.155Z,17.30
2019-02-06T22:27:50.676Z,15.72
2019-02-06T22:29:56.483Z,15.83
2019-02-06T22:32:02.106Z,17.37
2019-02-06T22:34:09.197Z,14.75
2019-02-06T22:36:14.629Z,17.30
2019-02-06T22:38:20.942Z,16.02
2019-02-06T22:40:28.810Z,14.05
2019-02-06T22:42:34.764Z,14.10
2019-02-06T22:44:40.522Z,13.55
2019-02-06T22:46:48.438Z,15.93
2019-02-06T22:48:53.966Z,16.10
2019-02-06T22:50:59.701Z,14.25
2019-02-06T22:53:06.304Z,13.00
2019-02-06T22:55:13.270Z,13.78
2019-02-06T22:57:21.109Z,12.25
2019-02-06T22:59:26.845Z,10.53
2019-02-06T23:01:38.398Z,17.17
2019-02-06T23:03:46.206Z,27.50
2019-02-06T23:05:51.654Z,27.25
2019-02-06T23:07:57.439Z,19.52
2019-02-06T23:10:03.067Z,16.62
2019-02-06T23:12:08.826Z,13.75
2019-02-06T23:14:18.827Z,14.47
2019-02-06T23:16:25.550Z,12.70
2019-02-06T23:18:31.237Z,15.38
2019-02-06T23:20:37.225Z,13.20
2019-02-06T23:22:43.182Z,14.40
2019-02-06T23:24:48.678Z,13.03
2019-02-06T23:26:54.401Z,12.00
2019-02-06T23:29:01.733Z,12.23
2019-02-06T23:31:13.182Z,13.50
2019-02-06T23:33:18.656Z,12.85
2019-02-06T23:35:24.376Z,12.55
2019-02-06T23:37:32.349Z,12.95
2019-02-06T23:39:38.169Z,12.25
2019-02-06T23:41:44.051Z,11.93
2019-02-06T23:43:50.738Z,11.93
2019-02-06T23:45:56.146Z,11.97
2019-02-06T23:48:01.640Z,12.50
2019-02-06T23:50:07.373Z,13.10
2019-02-06T23:52:12.878Z,12.10
2019-02-06T23:54:18.543Z,12.73
2019-02-06T23:56:23.998Z,12.55
2019-02-06T23:58:29.729Z,11.93
